Time;durP1;ratioP1;P1;durP2;ratioP2;P2;SDS_P1;SDS_P2;PMS_P1;PMS_P2;Temp;Humidity;BMP_temperature;BMP_pressure;BME280_temperature;BME280_humidity;BME280_pressure;Samples;Min_cycle;Max_cycle;Signal;HPM_P1;HPM_P2
2023/03/24 00:01:59;;;;;;;8.17;2.03;;;24.10;76.80;;;;;;4991276;28;20213;-68
2023/03/24 00:04:28;;;;;;;5.47;2.90;;;24.10;77.00;;;;;;5004086;28;20192;-70
2023/03/24 00:06:55;;;;;;;6.37;2.57;;;24.30;77.40;;;;;;5003100;28;20593;-69
2023/03/24 00:09:23;;;;;;;4.07;2.53;;;24.50;75.40;;;;;;5001347;28;20287;-68
2023/03/24 00:11:50;;;;;;;4.97;2.60;;;24.30;75.90;;;;;;5013382;28;20256;-72
2023/03/24 00:14:17;;;;;;;8.57;2.97;;;24.00;77.30;;;;;;4994040;28;20695;-66
2023/03/24 00:16:45;;;;;;;8.60;3.50;;;24.00;78.90;;;;;;4995740;28;20182;-68
2023/03/24 00:19:13;;;;;;;9.30;3.47;;;23.90;79.90;;;;;;4994869;28;20197;-67
2023/03/24 00:21:41;;;;;;;9.13;3.27;;;23.80;80.30;;;;;;4995524;28;20210;-71
2023/03/24 00:24:10;;;;;;;11.10;3.40;;;23.70;80.40;;;;;;4998380;28;20185;-72
2023/03/24 00:26:39;;;;;;;10.43;3.63;;;23.80;80.70;;;;;;4973150;28;20276;-74
2023/03/24 00:29:10;;;;;;;6.73;3.10;;;24.00;80.30;;;;;;4999752;28;20730;-69
2023/03/24 00:31:38;;;;;;;12.33;3.63;;;24.60;79.10;;;;;;4986144;28;20170;-70
2023/03/24 00:34:09;;;;;;;11.10;3.23;;;25.30;77.70;;;;;;4975981;28;20189;-69
2023/03/24 00:36:40;;;;;;;8.77;3.10;;;25.60;75.80;;;;;;4990251;28;20201;-74
2023/03/24 00:39:07;;;;;;;11.70;2.93;;;25.90;74.70;;;;;;4991876;28;20648;-72
2023/03/24 00:41:35;;;;;;;12.07;2.93;;;26.00;73.60;;;;;;5006896;28;20212;-74
2023/03/24 00:44:04;;;;;;;10.33;3.13;;;26.10;72.60;;;;;;5004053;28;20556;-69
2023/03/24 00:46:33;;;;;;;14.27;3.40;;;26.10;72.50;;;;;;4991568;28;20196;-72
2023/03/24 00:49:06;;;;;;;9.43;3.10;;;26.30;72.10;;;;;;4994649;28;20193;-68
2023/03/24 00:51:39;;;;;;;8.90;2.90;;;26.50;71.30;;;;;;5001460;28;20193;-72
2023/03/24 00:54:08;;;;;;;12.07;3.73;;;26.50;70.70;;;;;;4997401;28;20186;-68
2023/03/24 00:56:39;;;;;;;6.37;2.53;;;26.60;70.60;;;;;;4973092;28;20656;-66
2023/03/24 00:59:08;;;;;;;11.83;2.90;;;26.70;70.70;;;;;;4992845;28;20541;-68
2023/03/24 01:01:36;;;;;;;9.67;2.83;;;26.50;70.90;;;;;;4990810;28;20216;-70
2023/03/24 01:04:05;;;;;;;8.70;3.20;;;26.50;70.20;;;;;;5000145;28;20189;-70
2023/03/24 01:06:35;;;;;;;10.93;2.70;;;26.70;69.70;;;;;;5005807;28;20213;-71
2023/03/24 01:09:04;;;;;;;7.50;3.00;;;26.70;68.60;;;;;;4993702;28;20297;-71
2023/03/24 01:11:37;;;;;;;7.70;2.93;;;26.50;71.20;;;;;;4996223;28;20240;-69
2023/03/24 01:14:05;;;;;;;9.83;3.00;;;26.30;71.40;;;;;;5001958;28;20229;-73
2023/03/24 01:16:33;;;;;;;7.17;3.37;;;26.40;71.10;;;;;;5000962;28;20207;-73
2023/03/24 01:19:00;;;;;;;11.23;3.23;;;26.60;70.70;;;;;;5003435;28;20264;-70
2023/03/24 01:21:28;;;;;;;7.40;2.77;;;26.60;70.20;;;;;;4993312;28;20257;-69
2023/03/24 01:23:55;;;;;;;7.70;3.10;;;26.20;71.10;;;;;;4990989;28;20191;-68
2023/03/24 01:26:22;;;;;;;9.17;3.03;;;26.10;71.50;;;;;;5001055;28;20671;-68
2023/03/24 01:28:51;;;;;;;9.73;2.90;;;25.90;72.20;;;;;;5004798;28;20177;-69
2023/03/24 01:31:18;;;;;;;7.67;2.90;;;25.90;72.10;;;;;;5010465;28;20252;-68
2023/03/24 01:33:46;;;;;;;7.73;3.00;;;26.40;71.40;;;;;;4999242;28;20807;-67
2023/03/24 01:36:13;;;;;;;8.50;3.07;;;26.50;70.20;;;;;;4975525;28;20617;-70
2023/03/24 01:38:40;;;;;;;5.87;2.50;;;26.50;70.10;;;;;;4988029;28;20182;-72
2023/03/24 01:41:08;;;;;;;6.23;2.57;;;26.50;70.10;;;;;;4994041;28;20208;-69
2023/03/24 01:43:36;;;;;;;5.73;2.60;;;26.50;70.10;;;;;;4995684;28;20253;-68
2023/03/24 01:46:14;;;;;;;5.33;2.40;;;26.50;69.50;;;;;;4992468;28;20276;-71
2023/03/24 01:49:02;;;;;;;6.47;2.60;;;26.70;69.30;;;;;;4994841;28;20663;-66
2023/03/24 01:51:30;;;;;;;5.07;3.00;;;26.60;68.50;;;;;;4992637;28;20193;-67
2023/03/24 01:54:08;;;;;;;10.67;2.73;;;26.50;69.80;;;;;;5004750;28;20276;-65
2023/03/24 01:56:41;;;;;;;7.30;2.83;;;26.60;69.50;;;;;;4987019;28;20177;-74
2023/03/24 01:59:17;;;;;;;8.07;2.63;;;26.80;69.10;;;;;;5013892;28;20355;-68
2023/03/24 02:01:45;;;;;;;7.43;2.83;;;26.50;70.20;;;;;;5017155;28;20169;-67
2023/03/24 02:04:14;;;;;;;7.77;2.70;;;26.70;70.10;;;;;;5017689;28;20185;-69
2023/03/24 02:06:44;;;;;;;9.87;3.03;;;26.90;68.80;;;;;;4999186;28;20184;-68
2023/03/24 02:09:15;;;;;;;8.30;2.57;;;26.50;68.90;;;;;;5016699;28;20216;-69
2023/03/24 02:11:43;;;;;;;9.73;2.50;;;26.20;70.70;;;;;;5016548;28;20267;-71
2023/03/24 02:14:12;;;;;;;9.67;2.60;;;26.10;70.20;;;;;;5016712;28;20229;-72
2023/03/24 02:16:42;;;;;;;10.37;2.97;;;25.80;71.00;;;;;;5017126;28;20177;-68
2023/03/24 02:19:26;;;;;;;10.13;2.93;;;25.90;70.20;;;;;;5016593;28;20264;-69
2023/03/24 02:22:18;;;;;;;12.10;3.13;;;26.30;70.40;;;;;;5016732;28;20196;-70
2023/03/24 02:25:10;;;;;;;9.43;2.67;;;26.90;69.30;;;;;;5016328;28;20208;-71
2023/03/24 02:27:58;;;;;;;14.77;2.73;;;27.10;68.60;;;;;;5019634;28;20271;-72
2023/03/24 02:30:45;;;;;;;7.23;2.80;;;27.40;68.80;;;;;;5019816;28;20220;-72
2023/03/24 02:33:29;;;;;;;9.33;3.03;;;27.60;66.90;;;;;;5018904;28;20184;-72
2023/03/24 02:36:08;;;;;;;9.53;3.10;;;27.90;64.90;;;;;;5018077;28;20172;-74
2023/03/24 02:38:52;;;;;;;7.37;3.00;;;27.40;65.60;;;;;;5018224;28;20295;-75
2023/03/24 02:41:29;;;;;;;8.57;2.97;;;26.80;68.20;;;;;;5017463;28;20205;-75
2023/03/24 02:44:31;;;;;;;6.67;2.40;;;26.40;69.50;;;;;;5017475;28;20177;-71
2023/03/24 02:47:43;;;;;;;6.17;2.53;;;26.70;69.00;;;;;;4980657;28;20189;-73
2023/03/24 02:50:29;;;;;;;5.30;2.23;;;26.80;67.90;;;;;;4977825;28;20234;-69
2023/03/24 02:53:17;;;;;;;6.90;2.90;;;27.30;65.80;;;;;;5000039;28;20185;-68
2023/03/24 02:55:53;;;;;;;8.77;2.40;;;27.80;64.60;;;;;;5016221;28;20235;-71
2023/03/24 02:58:28;;;;;;;9.43;2.87;;;27.30;64.60;;;;;;5016548;28;20162;-70
2023/03/24 03:01:05;;;;;;;6.80;2.23;;;27.10;66.60;;;;;;5016169;28;20177;-69
2023/03/24 03:03:45;;;;;;;7.47;2.27;;;27.10;66.00;;;;;;5015211;28;20663;-71
2023/03/24 03:06:21;;;;;;;5.43;2.03;;;27.50;65.10;;;;;;5016059;28;20181;-69
2023/03/24 03:08:49;;;;;;;5.93;1.90;;;27.20;64.20;;;;;;4998467;28;20173;-73
2023/03/24 03:11:17;;;;;;;6.50;2.03;;;27.50;63.20;;;;;;5015233;28;20216;-68
2023/03/24 03:13:54;;;;;;;5.50;2.07;;;27.60;63.40;;;;;;5014674;28;20217;-68
2023/03/24 03:16:39;;;;;;;5.97;2.00;;;28.00;62.80;;;;;;5015304;28;20197;-66
2023/03/24 03:19:32;;;;;;;8.43;2.30;;;28.00;62.80;;;;;;5015390;28;20320;-69
2023/03/24 03:22:04;;;;;;;7.73;2.23;;;28.10;62.30;;;;;;5015251;28;20201;-69
2023/03/24 03:24:45;;;;;;;4.70;1.83;;;28.00;63.00;;;;;;5015186;28;20209;-69
2023/03/24 03:27:21;;;;;;;6.03;2.13;;;27.70;63.80;;;;;;5014861;28;20276;-70
2023/03/24 03:29:56;;;;;;;9.27;2.43;;;27.30;64.40;;;;;;5014127;28;20735;-68
2023/03/24 03:32:35;;;;;;;5.23;2.13;;;27.20;64.50;;;;;;5015371;28;20529;-68
2023/03/24 03:35:21;;;;;;;6.77;2.03;;;27.00;65.30;;;;;;5015430;28;20534;-70
2023/03/24 03:38:06;;;;;;;7.40;2.30;;;26.60;66.60;;;;;;5013542;28;20213;-71
2023/03/24 03:40:49;;;;;;;6.70;1.87;;;26.20;68.00;;;;;;5013671;28;20185;-73
2023/03/24 03:43:17;;;;;;;8.57;2.20;;;26.00;67.90;;;;;;5013623;28;20177;-68
2023/03/24 03:45:44;;;;;;;6.60;2.30;;;26.00;68.50;;;;;;4995873;28;20680;-69
2023/03/24 03:48:12;;;;;;;4.13;1.50;;;25.60;69.00;;;;;;5013441;28;20192;-70
2023/03/24 03:50:40;;;;;;;6.10;2.00;;;25.20;69.20;;;;;;4994194;28;20213;-68
2023/03/24 03:53:08;;;;;;;7.63;2.47;;;25.40;69.90;;;;;;4976301;28;20174;-69
2023/03/24 03:55:37;;;;;;;5.03;1.97;;;25.60;69.40;;;;;;5009153;28;20216;-68
2023/03/24 03:58:04;;;;;;;5.60;1.90;;;25.70;68.60;;;;;;5012172;28;20177;-72
2023/03/24 04:00:33;;;;;;;5.43;1.73;;;25.80;68.50;;;;;;5012778;28;20266;-68
2023/03/24 04:03:30;;;;;;;7.23;1.87;;;26.50;65.20;;;;;;5008041;28;20538;-70
2023/03/24 04:06:01;;;;;;;5.47;1.70;;;26.80;63.30;;;;;;5007195;28;20231;-72
2023/03/24 04:08:46;;;;;;;8.60;2.10;;;27.10;64.00;;;;;;5012529;28;20181;-70
2023/03/24 04:11:40;;;;;;;5.27;1.67;;;27.30;63.10;;;;;;5012716;28;20253;-72
2023/03/24 04:14:19;;;;;;;7.40;2.20;;;26.80;64.20;;;;;;5012312;28;20221;-68
2023/03/24 04:17:16;;;;;;;6.37;1.70;;;26.70;64.50;;;;;;5012180;28;20248;-68
2023/03/24 04:20:02;;;;;;;5.60;2.07;;;26.30;64.80;;;;;;5012209;28;20264;-71
2023/03/24 04:22:37;;;;;;;6.30;2.17;;;26.00;66.10;;;;;;5012265;28;20453;-74
2023/03/24 04:25:25;;;;;;;7.50;1.93;;;25.80;66.80;;;;;;5012670;28;20556;-71
2023/03/24 04:28:17;;;;;;;11.57;2.23;;;25.60;67.70;;;;;;5012347;28;20276;-71
2023/03/24 04:30:56;;;;;;;10.13;2.00;;;25.30;68.30;;;;;;5012683;28;20304;-67
2023/03/24 04:33:37;;;;;;;8.20;2.10;;;25.20;68.70;;;;;;5012827;28;20540;-67
2023/03/24 04:36:44;;;;;;;5.03;2.00;;;25.00;68.80;;;;;;5012829;28;20211;-71
2023/03/24 04:39:16;;;;;;;7.70;1.90;;;24.90;69.40;;;;;;5012481;28;20184;-71
2023/03/24 04:41:46;;;;;;;6.50;1.90;;;25.00;69.00;;;;;;5012035;28;20185;-73
2023/03/24 04:44:16;;;;;;;5.90;2.10;;;25.70;67.70;;;;;;5012839;28;20173;-70
2023/03/24 04:46:44;;;;;;;7.50;2.20;;;25.90;66.10;;;;;;5012776;28;20707;-67
2023/03/24 04:49:11;;;;;;;7.07;1.70;;;25.90;66.00;;;;;;4993597;28;20219;-69
2023/03/24 04:51:39;;;;;;;8.77;1.93;;;25.90;66.50;;;;;;4995541;28;20201;-70
2023/03/24 04:54:06;;;;;;;9.53;2.20;;;26.00;66.80;;;;;;5001462;28;20514;-69
2023/03/24 04:56:36;;;;;;;5.80;1.70;;;26.20;66.70;;;;;;4994829;28;20542;-66
2023/03/24 04:59:06;;;;;;;10.47;1.73;;;27.20;63.50;;;;;;5007407;28;20175;-69
2023/03/24 05:01:36;;;;;;;3.87;1.57;;;27.80;60.00;;;;;;4988970;28;20216;-69
2023/03/24 05:04:04;;;;;;;9.53;1.87;;;28.70;58.30;;;;;;4992649;28;20174;-68
2023/03/24 05:06:32;;;;;;;3.23;1.53;;;28.20;58.70;;;;;;4992774;28;20212;-70
2023/03/24 05:08:59;;;;;;;7.73;1.80;;;27.10;61.00;;;;;;4991065;28;20261;-67
2023/03/24 05:11:27;;;;;;;5.73;1.97;;;26.50;63.40;;;;;;4988107;28;20209;-66
2023/03/24 05:13:55;;;;;;;5.07;1.80;;;26.20;64.50;;;;;;4990725;28;20263;-66
2023/03/24 05:16:22;;;;;;;9.07;2.13;;;25.90;64.90;;;;;;4991007;28;20182;-69
2023/03/24 05:18:50;;;;;;;8.10;1.80;;;25.90;65.00;;;;;;4992543;28;20175;-69
2023/03/24 05:21:19;;;;;;;5.43;1.90;;;25.90;64.90;;;;;;4991474;28;20532;-69
2023/03/24 05:23:46;;;;;;;5.17;1.77;;;26.30;63.20;;;;;;4990160;28;20239;-67
2023/03/24 05:26:14;;;;;;;6.63;1.63;;;27.40;61.90;;;;;;4992224;28;20178;-67
2023/03/24 05:28:41;;;;;;;3.93;1.43;;;28.00;58.80;;;;;;4989943;28;20479;-71
2023/03/24 05:31:09;;;;;;;4.10;1.73;;;28.30;56.60;;;;;;4987765;28;20221;-67
2023/03/24 05:33:36;;;;;;;7.10;1.77;;;28.90;55.80;;;;;;4989852;28;20660;-70
2023/03/24 05:36:04;;;;;;;4.33;1.33;;;29.40;53.70;;;;;;4992214;28;20276;-67
2023/03/24 05:38:31;;;;;;;8.17;1.83;;;29.00;54.70;;;;;;4995072;28;20174;-66
2023/03/24 05:40:59;;;;;;;4.22;1.40;;;28.50;56.40;;;;;;4996265;28;20521;-70
2023/03/24 05:43:27;;;;;;;6.30;1.50;;;28.60;56.40;;;;;;4995742;28;20537;-69
2023/03/24 05:45:55;;;;;;;6.65;2.00;;;28.80;55.70;;;;;;4994782;28;20190;-70
2023/03/24 05:48:22;;;;;;;3.80;1.55;;;29.60;54.00;;;;;;4992415;28;20193;-67
2023/03/24 05:50:51;;;;;;;5.15;1.35;;;29.70;53.30;;;;;;4990089;28;20218;-67
2023/03/24 05:53:18;;;;;;;4.30;1.35;;;29.50;53.00;;;;;;4992203;28;20186;-71
2023/03/24 05:55:46;;;;;;;6.10;1.67;;;28.20;56.40;;;;;;4994134;28;20190;-71
2023/03/24 05:58:14;;;;;;;6.50;1.50;;;28.20;57.70;;;;;;4994204;28;20657;-68
2023/03/24 06:00:41;;;;;;;6.80;1.90;;;28.20;57.00;;;;;;4993869;28;20784;-70
2023/03/24 06:03:09;;;;;;;5.63;1.38;;;29.00;55.20;;;;;;4995794;28;20197;-69
2023/03/24 06:05:37;;;;;;;5.10;1.48;;;29.80;52.90;;;;;;4994226;28;20174;-66
2023/03/24 06:08:04;;;;;;;3.00;1.60;;;28.80;54.30;;;;;;4995090;28;20190;-70
2023/03/24 06:10:31;;;;;;;6.30;1.50;;;28.20;55.10;;;;;;4995008;28;20583;-71
2023/03/24 06:12:59;;;;;;;5.00;1.37;;;27.20;58.30;;;;;;4994834;28;20182;-68
2023/03/24 06:15:26;;;;;;;5.93;1.60;;;26.80;59.90;;;;;;4993105;28;20193;-68
2023/03/24 06:17:54;;;;;;;5.73;1.77;;;26.20;61.50;;;;;;4991465;28;20182;-69
2023/03/24 06:20:21;;;;;;;4.40;1.33;;;25.90;61.70;;;;;;4994833;28;20241;-66
2023/03/24 06:22:49;;;;;;;4.43;1.40;;;26.70;60.10;;;;;;4994875;28;20281;-68
2023/03/24 06:25:20;;;;;;;7.20;2.07;;;27.30;59.50;;;;;;4992971;28;20194;-69
2023/03/24 06:27:47;;;;;;;3.90;1.23;;;28.00;56.10;;;;;;4994078;28;20177;-68
2023/03/24 06:30:17;;;;;;;2.83;1.40;;;28.80;53.90;;;;;;4994163;28;20301;-68
2023/03/24 06:32:45;;;;;;;3.97;1.47;;;29.30;52.50;;;;;;4992854;28;20208;-67
2023/03/24 06:35:16;;;;;;;5.53;1.60;;;29.20;51.40;;;;;;4993532;28;20552;-68
2023/03/24 06:37:44;;;;;;;6.20;1.50;;;29.00;52.50;;;;;;4993736;28;20180;-69
2023/03/24 06:40:16;;;;;;;3.90;1.67;;;28.40;53.60;;;;;;4992884;28;20284;-67
2023/03/24 06:42:43;;;;;;;4.97;1.50;;;28.40;53.10;;;;;;4994567;28;20182;-68
2023/03/24 06:45:11;;;;;;;5.05;1.42;;;28.90;53.10;;;;;;5003568;28;20197;-69
2023/03/24 06:47:39;;;;;;;3.60;1.47;;;28.60;53.60;;;;;;4997517;28;20185;-68
2023/03/24 06:50:07;;;;;;;7.30;1.52;;;28.60;54.70;;;;;;4993657;28;20205;-69
2023/03/24 06:52:35;;;;;;;4.90;1.60;;;28.40;53.90;;;;;;4987478;28;20175;-69
2023/03/24 06:55:03;;;;;;;5.73;1.60;;;28.30;52.90;;;;;;4992712;28;20520;-70
2023/03/24 06:57:31;;;;;;;4.57;1.70;;;27.60;56.30;;;;;;5010269;28;20174;-68
2023/03/24 06:59:58;;;;;;;6.70;1.40;;;28.10;55.00;;;;;;4993727;28;20607;-69
2023/03/24 07:02:33;;;;;;;6.80;1.60;;;27.40;56.70;;;;;;5000999;28;20180;-68
2023/03/24 07:05:09;;;;;;;3.90;1.30;;;27.90;56.70;;;;;;4998052;28;20184;-68
2023/03/24 07:07:37;;;;;;;4.30;1.47;;;27.10;58.00;;;;;;5005272;28;20228;-70
2023/03/24 07:10:06;;;;;;;5.63;1.67;;;27.00;58.50;;;;;;5001442;28;20217;-66
2023/03/24 07:12:34;;;;;;;4.03;1.30;;;25.90;61.70;;;;;;4996042;28;20277;-68
2023/03/24 07:15:03;;;;;;;3.10;1.37;;;25.20;63.40;;;;;;5013176;28;20237;-67
2023/03/24 07:17:30;;;;;;;6.67;1.60;;;24.80;65.00;;;;;;5002032;28;20652;-68
2023/03/24 07:19:58;;;;;;;8.50;1.83;;;24.50;66.20;;;;;;5003474;28;20186;-68
2023/03/24 07:22:25;;;;;;;5.53;1.70;;;24.60;66.70;;;;;;5013581;28;20276;-67
2023/03/24 07:24:53;;;;;;;6.60;1.60;;;24.90;65.70;;;;;;5013475;28;20204;-68
2023/03/24 07:27:20;;;;;;;3.80;1.50;;;25.50;63.20;;;;;;5012798;28;20228;-70
2023/03/24 07:29:47;;;;;;;4.43;1.37;;;25.60;62.80;;;;;;5000676;28;20223;-68
2023/03/24 07:32:15;;;;;;;5.47;1.70;;;25.50;63.20;;;;;;5002932;28;20189;-68
2023/03/24 07:34:44;;;;;;;5.07;1.53;;;24.90;64.60;;;;;;5002073;28;20196;-68
2023/03/24 07:37:11;;;;;;;4.57;1.10;;;24.60;66.00;;;;;;5003106;28;20178;-67
2023/03/24 07:39:39;;;;;;;7.47;1.70;;;24.40;66.90;;;;;;5012267;28;20278;-74
2023/03/24 07:42:06;;;;;;;5.60;1.93;;;24.30;67.90;;;;;;5013443;28;20185;-75
2023/03/24 07:44:33;;;;;;;7.37;1.80;;;24.00;69.20;;;;;;5006522;28;20185;-73
2023/03/24 07:47:01;;;;;;;6.30;1.67;;;23.80;69.60;;;;;;5000125;28;20189;-74
2023/03/24 07:49:28;;;;;;;3.97;1.70;;;23.70;70.20;;;;;;4992874;28;20657;-74
2023/03/24 07:51:57;;;;;;;5.40;1.60;;;23.60;70.80;;;;;;4990192;28;20190;-74
2023/03/24 07:54:25;;;;;;;7.87;1.77;;;23.50;71.30;;;;;;4991958;28;20255;-70
2023/03/24 07:56:53;;;;;;;6.87;1.70;;;23.40;71.80;;;;;;5004505;28;20190;-69
2023/03/24 07:59:20;;;;;;;6.80;1.90;;;23.40;71.80;;;;;;5010027;28;20181;-72
2023/03/24 08:01:48;;;;;;;9.53;2.00;;;23.30;72.50;;;;;;5002838;28;20180;-69
2023/03/24 08:04:16;;;;;;;4.17;1.60;;;23.30;72.40;;;;;;5001464;28;20205;-67
2023/03/24 08:06:44;;;;;;;8.10;2.30;;;23.30;72.40;;;;;;4991622;28;20189;-73
2023/03/24 08:09:12;;;;;;;4.10;1.90;;;23.20;72.90;;;;;;5001322;28;20173;-68
2023/03/24 08:11:39;;;;;;;6.47;1.97;;;23.20;73.10;;;;;;4987954;28;20193;-67
2023/03/24 08:14:06;;;;;;;5.67;2.00;;;23.10;73.10;;;;;;4991327;28;20228;-69
2023/03/24 08:16:34;;;;;;;5.30;2.10;;;23.10;73.40;;;;;;4988312;28;20182;-68
2023/03/24 08:19:01;;;;;;;5.47;2.10;;;23.00;73.80;;;;;;4997804;28;20182;-68
2023/03/24 08:21:29;;;;;;;5.80;2.07;;;23.00;73.80;;;;;;4989601;28;20253;-67
2023/03/24 08:23:56;;;;;;;8.20;2.13;;;23.00;74.20;;;;;;4992269;28;20683;-68
2023/03/24 08:26:33;;;;;;;6.07;2.07;;;22.90;74.40;;;;;;4991908;28;20252;-70
2023/03/24 08:29:01;;;;;;;10.53;1.70;;;22.90;74.90;;;;;;4991720;28;20213;-68
2023/03/24 08:31:33;;;;;;;8.57;1.90;;;22.80;75.10;;;;;;4991131;28;20185;-68
2023/03/24 08:34:01;;;;;;;7.80;1.77;;;22.80;75.20;;;;;;4991974;28;20174;-68
2023/03/24 08:36:28;;;;;;;5.40;1.80;;;22.80;75.50;;;;;;4991072;28;20185;-68
2023/03/24 08:38:56;;;;;;;6.17;1.93;;;22.80;75.60;;;;;;4987892;28;20174;-70
2023/03/24 08:41:33;;;;;;;8.53;2.23;;;22.80;75.90;;;;;;4991728;28;20205;-74
2023/03/24 08:44:06;;;;;;;7.83;2.30;;;22.70;76.10;;;;;;4992987;28;20632;-70
2023/03/24 08:46:34;;;;;;;7.13;2.27;;;22.70;76.20;;;;;;4992513;28;20189;-68
2023/03/24 08:49:02;;;;;;;10.03;2.10;;;22.60;76.50;;;;;;4991201;28;20218;-68
2023/03/24 08:51:30;;;;;;;8.17;2.40;;;22.60;76.60;;;;;;4990204;28;20186;-73
2023/03/24 08:53:58;;;;;;;9.30;2.47;;;22.60;76.80;;;;;;4992417;28;20181;-72
2023/03/24 08:56:25;;;;;;;9.23;2.23;;;22.60;76.90;;;;;;4992226;28;20188;-72
2023/03/24 08:58:52;;;;;;;11.17;2.67;;;22.50;77.00;;;;;;4991950;28;20193;-70
2023/03/24 09:01:23;;;;;;;8.63;2.50;;;22.50;77.30;;;;;;4990209;28;20265;-74
2023/03/24 09:03:50;;;;;;;7.83;2.27;;;22.50;77.60;;;;;;4990679;28;20182;-67
2023/03/24 09:06:18;;;;;;;7.77;2.70;;;22.50;77.60;;;;;;4990993;28;20273;-73
2023/03/24 09:08:45;;;;;;;5.07;2.30;;;22.50;78.20;;;;;;4984759;28;20213;-74
2023/03/24 09:11:18;;;;;;;6.93;2.23;;;22.40;78.30;;;;;;4993408;28;20533;-73
2023/03/24 09:13:46;;;;;;;8.87;2.50;;;22.40;78.70;;;;;;4995375;28;20227;-75
2023/03/24 09:16:14;;;;;;;7.67;2.23;;;22.40;79.00;;;;;;4994879;28;20591;-74
2023/03/24 09:18:42;;;;;;;10.53;2.73;;;22.30;79.20;;;;;;4992574;28;20266;-73
2023/03/24 09:21:09;;;;;;;12.37;2.40;;;22.30;79.40;;;;;;4994977;28;20292;-76
2023/03/24 09:23:36;;;;;;;5.60;1.80;;;22.30;79.50;;;;;;4995071;28;20731;-74
2023/03/24 09:26:05;;;;;;;8.40;2.20;;;22.30;79.70;;;;;;4996799;28;20189;-74
2023/03/24 09:28:34;;;;;;;7.83;2.23;;;22.30;79.60;;;;;;4994837;28;20786;-74
2023/03/24 09:31:04;;;;;;;6.47;2.20;;;22.20;79.60;;;;;;4995230;28;20224;-75
2023/03/24 09:33:33;;;;;;;8.73;2.37;;;22.20;79.40;;;;;;4995806;28;20224;-74
2023/03/24 09:36:03;;;;;;;3.93;1.80;;;22.20;79.40;;;;;;4995400;28;20558;-73
2023/03/24 09:38:33;;;;;;;8.67;2.00;;;22.20;79.30;;;;;;4993866;28;20174;-68
2023/03/24 09:41:02;;;;;;;8.50;2.10;;;22.10;79.20;;;;;;4994702;28;20182;-72
2023/03/24 09:43:44;;;;;;;7.63;2.20;;;22.10;79.10;;;;;;4995983;28;20248;-73
2023/03/24 09:46:33;;;;;;;7.63;2.10;;;22.10;79.10;;;;;;4996173;28;20186;-72
2023/03/24 09:49:01;;;;;;;7.80;2.00;;;22.10;79.00;;;;;;4994231;28;20547;-70
2023/03/24 09:51:35;;;;;;;7.33;2.03;;;22.10;78.90;;;;;;4983909;28;20218;-73
2023/03/24 09:54:29;;;;;;;7.23;2.10;;;22.10;78.90;;;;;;4995474;28;20256;-74
2023/03/24 09:56:58;;;;;;;4.23;1.97;;;22.00;79.10;;;;;;5005708;28;20190;-72
2023/03/24 09:59:41;;;;;;;5.17;1.73;;;22.00;79.30;;;;;;4979825;28;20189;-70
2023/03/24 10:02:17;;;;;;;7.10;1.73;;;21.90;79.30;;;;;;4998863;28;20184;-67
2023/03/24 10:04:45;;;;;;;7.97;1.87;;;21.90;79.40;;;;;;5015853;28;20273;-69
2023/03/24 10:07:29;;;;;;;6.57;1.60;;;21.90;79.60;;;;;;5000344;28;20537;-67
2023/03/24 10:09:59;;;;;;;10.23;2.37;;;21.90;79.60;;;;;;5002371;28;20213;-69
2023/03/24 10:12:38;;;;;;;7.83;1.80;;;21.90;79.70;;;;;;5008440;28;20188;-68
2023/03/24 10:15:33;;;;;;;7.60;2.00;;;21.90;79.80;;;;;;4999367;28;20224;-69
2023/03/24 10:18:15;;;;;;;6.00;1.87;;;21.90;79.90;;;;;;4999295;28;20183;-69
2023/03/24 10:21:18;;;;;;;6.07;1.90;;;21.90;79.90;;;;;;4998813;28;20190;-70
2023/03/24 10:24:08;;;;;;;6.77;2.13;;;21.80;80.20;;;;;;4997432;28;20548;-69
2023/03/24 10:27:04;;;;;;;6.20;1.83;;;21.80;80.30;;;;;;5006210;28;20206;-68
2023/03/24 10:29:34;;;;;;;7.40;2.30;;;21.80;80.40;;;;;;5010203;28;20205;-70
2023/03/24 10:32:23;;;;;;;11.80;2.47;;;21.80;80.70;;;;;;5002608;28;20320;-70
2023/03/24 10:35:08;;;;;;;6.43;2.00;;;21.80;80.70;;;;;;5010540;28;20173;-73
2023/03/24 10:37:37;;;;;;;4.83;2.03;;;21.80;80.80;;;;;;5003122;28;20268;-69
2023/03/24 10:40:17;;;;;;;9.67;1.90;;;21.80;81.00;;;;;;5001073;28;20191;-68
2023/03/24 10:42:47;;;;;;;5.37;2.37;;;21.80;81.00;;;;;;4998503;28;20189;-69
2023/03/24 10:45:23;;;;;;;5.80;2.00;;;21.80;80.90;;;;;;4996330;28;20196;-67
2023/03/24 10:47:52;;;;;;;7.70;1.80;;;21.80;81.10;;;;;;4995315;28;20181;-68
2023/03/24 10:50:26;;;;;;;7.10;2.20;;;21.70;81.20;;;;;;4992700;28;20221;-69
2023/03/24 10:52:54;;;;;;;12.30;2.20;;;21.70;81.40;;;;;;4993516;28;20182;-67
2023/03/24 10:55:30;;;;;;;9.00;2.07;;;21.80;81.60;;;;;;4992209;28;20205;-67
2023/03/24 10:58:02;;;;;;;5.33;1.83;;;21.70;81.60;;;;;;4994120;28;20281;-69
2023/03/24 11:00:31;;;;;;;5.00;1.80;;;21.70;81.60;;;;;;4993379;28;20195;-69
2023/03/24 11:03:11;;;;;;;11.10;2.23;;;21.70;81.60;;;;;;4992883;28;20540;-68
2023/03/24 11:05:40;;;;;;;10.23;2.80;;;21.70;81.80;;;;;;4993472;28;20614;-68
2023/03/24 11:08:34;;;;;;;5.83;2.00;;;21.60;81.70;;;;;;4994597;28;20293;-70
2023/03/24 11:11:13;;;;;;;6.07;2.00;;;21.60;81.70;;;;;;4988789;28;20636;-68
2023/03/24 11:13:41;;;;;;;6.00;2.20;;;21.60;81.70;;;;;;4983397;28;20217;-69
2023/03/24 11:16:14;;;;;;;5.37;1.87;;;21.60;81.80;;;;;;4993874;28;20190;-70
2023/03/24 11:19:00;;;;;;;4.63;2.00;;;21.60;81.70;;;;;;4991866;28;20185;-69
2023/03/24 11:21:35;;;;;;;7.90;1.87;;;21.60;81.70;;;;;;4992443;28;20189;-69
2023/03/24 11:24:10;;;;;;;6.40;2.10;;;21.60;81.70;;;;;;4992399;28;20270;-68
2023/03/24 11:26:39;;;;;;;7.80;1.70;;;21.60;81.80;;;;;;4993320;28;20209;-69
2023/03/24 11:29:17;;;;;;;10.33;2.27;;;21.60;81.70;;;;;;4992768;28;20190;-70
2023/03/24 11:31:58;;;;;;;5.90;1.60;;;21.50;81.70;;;;;;4982171;28;20235;-69
2023/03/24 11:34:40;;;;;;;10.17;2.73;;;21.50;81.80;;;;;;4993333;28;20205;-70
2023/03/24 11:37:20;;;;;;;7.23;1.93;;;21.50;81.90;;;;;;4993768;28;20194;-68
2023/03/24 11:40:12;;;;;;;6.90;1.73;;;21.50;82.00;;;;;;4993342;28;20552;-67
2023/03/24 11:42:59;;;;;;;5.30;1.77;;;21.50;82.10;;;;;;4990899;28;20269;-70
2023/03/24 11:45:40;;;;;;;7.17;1.53;;;21.50;81.80;;;;;;4993457;28;20305;-68
2023/03/24 11:48:28;;;;;;;7.20;1.83;;;21.50;81.80;;;;;;4982218;28;20268;-68
2023/03/24 11:50:58;;;;;;;4.13;1.70;;;21.40;81.90;;;;;;4991883;28;20249;-70
2023/03/24 11:53:32;;;;;;;5.27;1.60;;;21.40;82.00;;;;;;4987901;28;20265;-70
2023/03/24 11:56:28;;;;;;;10.00;1.87;;;21.40;82.20;;;;;;4991458;28;20244;-69
2023/03/24 11:59:48;;;;;;;5.47;2.17;;;21.40;82.10;;;;;;4996363;28;20182;-68
2023/03/24 12:02:24;;;;;;;7.47;1.87;;;21.40;82.20;;;;;;4968194;28;20196;-68
2023/03/24 12:05:43;;;;;;;7.07;1.87;;;21.40;82.20;;;;;;5011343;28;20204;-71
2023/03/24 12:08:39;;;;;;;4.17;1.67;;;21.40;82.10;;;;;;4952432;28;20277;-67
2023/03/24 12:11:24;;;;;;;6.97;1.70;;;21.30;82.20;;;;;;4991940;28;20213;-67
2023/03/24 12:13:52;;;;;;;4.97;1.70;;;21.30;82.10;;;;;;4985448;28;20320;-68
2023/03/24 12:16:34;;;;;;;4.27;1.83;;;21.30;82.30;;;;;;4995758;28;20233;-70
2023/03/24 12:19:36;;;;;;;9.17;2.03;;;21.40;82.30;;;;;;5013390;28;20177;-69
2023/03/24 12:22:08;;;;;;;6.93;2.27;;;21.40;82.30;;;;;;5013064;28;20184;-68
2023/03/24 12:24:53;;;;;;;8.43;1.77;;;21.50;82.30;;;;;;5012410;28;20639;-69
2023/03/24 12:27:41;;;;;;;6.17;1.63;;;21.50;82.20;;;;;;5002578;28;20635;-68
2023/03/24 12:30:30;;;;;;;6.07;1.93;;;21.60;81.90;;;;;;5012988;28;20220;-70
2023/03/24 12:33:13;;;;;;;8.80;1.70;;;21.60;81.70;;;;;;5009439;28;20177;-68
2023/03/24 12:36:05;;;;;;;8.50;2.23;;;21.70;81.60;;;;;;4992977;28;20174;-69
2023/03/24 12:38:48;;;;;;;9.47;2.23;;;21.70;81.40;;;;;;4993264;28;20240;-70
2023/03/24 12:41:39;;;;;;;7.00;1.87;;;21.80;81.50;;;;;;4995122;28;20186;-67
2023/03/24 12:44:18;;;;;;;9.40;2.23;;;21.80;81.20;;;;;;4989967;28;20556;-68
2023/03/24 12:47:12;;;;;;;8.43;2.07;;;21.80;81.10;;;;;;4989227;28;20186;-69
2023/03/24 12:49:46;;;;;;;6.77;2.23;;;21.80;81.00;;;;;;4992628;28;20255;-69
2023/03/24 12:52:31;;;;;;;7.20;1.53;;;21.80;81.00;;;;;;4993293;28;20645;-75
2023/03/24 12:55:18;;;;;;;3.97;1.73;;;21.80;80.80;;;;;;4990100;28;20185;-72
2023/03/24 12:57:51;;;;;;;6.33;2.03;;;21.80;80.60;;;;;;4976619;28;20923;-73
2023/03/24 13:00:30;;;;;;;7.33;2.10;;;21.80;80.60;;;;;;5002169;28;20529;-74
2023/03/24 13:03:14;;;;;;;8.27;2.00;;;21.90;80.50;;;;;;4993999;28;20189;-75
2023/03/24 13:05:53;;;;;;;6.70;2.10;;;21.90;80.40;;;;;;4994093;28;20281;-73
2023/03/24 13:08:28;;;;;;;5.93;2.03;;;21.90;80.20;;;;;;4999835;28;20262;-75
2023/03/24 13:11:03;;;;;;;7.63;1.80;;;21.90;80.10;;;;;;5000267;28;20228;-74
2023/03/24 13:13:40;;;;;;;9.27;1.93;;;21.90;79.90;;;;;;4997432;28;20222;-74
2023/03/24 13:16:15;;;;;;;8.23;1.80;;;21.90;80.00;;;;;;5005484;28;20176;-76
2023/03/24 13:18:47;;;;;;;7.90;2.00;;;21.90;80.00;;;;;;5001419;28;20188;-73
2023/03/24 13:21:20;;;;;;;9.10;2.30;;;21.90;80.10;;;;;;5002328;28;20618;-73